# TIME ORIGINAL RWY/APCH USING RWY TIMESTAMP
201703091400 TISE ATIS RJAA CLOSE APCH 091400 RJAA 16L,16R 2017-03-09 23:05:03
201703090430 TIS ATIS RJAA V M0430 (APCH)ILS Y RWY16R/ILS Y RWY16L LDG RWY 16R/16L DEP RWY 16R PARL APCHS INPR. DEP FREQ 124.2. M 090430Z 19004KT 120V290 40KM FEW030CU 12/M08 Q1004/A2965= Q/TWO NINE SIX FIVE STP APCH 090430 RJAA (APCH)ILS Y RWY16R/ILS Y RWY16L LDG RWY 16R/16L DEP RWY 16R 16L,16R 2017-03-09 13:35:04
201703090400 TIS ATIS RJAA U M0400 (APCH)ILS Y RWY16R/ILS Y RWY16L LDG RWY 16R/16L DEP RWY 16R PARL APCHS INPR. DEP FREQ 124.2. M 090400Z 15003KT 060V230 40KM FEW030CU 11/M07 Q1004/A2966= Q/TWO NINE SIX SIX STP APCH 090400 RJAA (APCH)ILS Y RWY16R/ILS Y RWY16L LDG RWY 16R/16L DEP RWY 16R 16L,16R 2017-03-09 13:05:04
201703090330 TIS ATIS RJAA T M0330 (APCH)ILS Y RWY16R/ILS Y RWY16L LDG RWY 16R/16L DEP RWY 16R PARL APCHS INPR. DEP FREQ 124.2. M 090330Z VRB03KT 40KM FEW030CU 12/M06 Q1004/A2967= Q/TWO NINE SIX SEVEN STP APCH 090330 RJAA (APCH)ILS Y RWY16R/ILS Y RWY16L LDG RWY 16R/16L DEP RWY 16R 16L,16R 2017-03-09 12:35:04
201703090300 TIS ATIS RJAA R M0300 (APCH)ILS Y RWY16L LDG RWY 16L DEP RWY 16R DEP FREQ 124.2. M 090300Z VRB05KT 30KM FEW030CU 11/M07 Q1005/A2969= Q/TWO NINE SIX NINE STP APCH 090300 RJAA (APCH)ILS Y RWY16L LDG RWY 16L DEP RWY 16R 16L 2017-03-09 12:05:03
201703090230 TIS ATIS RJAA Q M0230 (APCH)ILS Y RWY16L LDG RWY 16L DEP RWY 16R DEP FREQ 124.2. M 090230Z 22006KT 190V260 30KM FEW030CU 11/M06 Q1005/A2970= Q/TWO NINE SEVEN ZERO STP APCH 090230 RJAA (APCH)ILS Y RWY16L LDG RWY 16L DEP RWY 16R 16L 2017-03-09 11:35:04
201703090200 TIS ATIS RJAA P M0200 (APCH)ILS Y RWY16L LDG RWY 16L DEP RWY 16R DEP FREQ 124.2. M 090200Z VRB02KT 30KM FEW030CU 10/M06 Q1006/A2971= Q/TWO NINE SEVEN ONE STP APCH 090200 RJAA (APCH)ILS Y RWY16L LDG RWY 16L DEP RWY 16R 16L 2017-03-09 11:05:03
201703090146 TIS ATIS RJAA O S0146 (APCH)ILS Y RWY16L LDG RWY 16L DEP RWY 16R DEP FREQ 124.2. S 090146Z VRB03KT 30KM FEW030CU 09/M06 Q1006/A2971= Q/TWO NINE SEVEN ONE STP APCH 090146 RJAA (APCH)ILS Y RWY16L LDG RWY 16L DEP RWY 16R 16L 2017-03-09 10:50:04
201703090130 TIS ATIS RJAA M M0130 (APCH)ILS Y RWY34R LDG RWY 34R DEP RWY 34L DEP FREQ 124.2. OBSERVE GEAR DOWN OPS PROC ON FNL. M 090130Z 26004KT 210V330 30KM FEW030CU 09/M06 Q1006/A2973= Q/TWO NINE SEVEN THREE STP APCH 090130 RJAA (APCH)ILS Y RWY34R LDG RWY 34R DEP RWY 34L 34R 2017-03-09 10:35:03
201703090100 TIS ATIS RJAA L M0100 (APCH)ILS Y RWY34R LDG RWY 34R DEP RWY 34L DEP FREQ 124.2. OBSERVE GEAR DOWN OPS PROC ON FNL. M 090100Z 31005KT 280V350 30KM FEW030CU 08/M06 Q1007/A2974= Q/TWO NINE SEVEN FOUR STP APCH 090100 RJAA (APCH)ILS Y RWY34R LDG RWY 34R DEP RWY 34L 34R 2017-03-09 10:05:04
201703090030 TIS ATIS RJAA K M0030 (APCH)ILS Y RWY34R LDG RWY 34R DEP RWY 34L DEP FREQ 124.2. OBSERVE GEAR DOWN OPS PROC ON FNL. M 090030Z 30007KT 260V340 30KM FEW030CU 08/M05 Q1007/A2974= Q/TWO NINE SEVEN FOUR STP APCH 090030 RJAA (APCH)ILS Y RWY34R LDG RWY 34R DEP RWY 34L 34R 2017-03-09 09:35:03
201703090000 TIS ATIS RJAA I M0000 (APCH)ILS RWY34L/ILS Y RWY34R LDG RWY 34L/34R DEP RWY 34L PARL APCHS INPR. DEP FREQ 124.2. OBSERVE GEAR DOWN OPS PROC ON FNL. M 090000Z 30005KT 250V340 25KM FEW030CU 07/M04 Q1007/A2975= Q/TWO NINE SEVEN FIVE STP APCH 090000 RJAA (APCH)ILS RWY34L/ILS Y RWY34R LDG RWY 34L/34R DEP RWY 34L 34L,34R 2017-03-09 09:05:03
201703082330 TIS ATIS RJAA H M2330 (APCH)ILS RWY34L/ILS Y RWY34R LDG RWY 34L/34R DEP RWY 34L PARL APCHS INPR. DEP FREQ 124.2. OBSERVE GEAR DOWN OPS PROC ON FNL. M 082330Z VRB02KT 25KM FEW030CU 05/M03 Q1007/A2975= Q/TWO NINE SEVEN FIVE STP APCH 082330 RJAA (APCH)ILS RWY34L/ILS Y RWY34R LDG RWY 34L/34R DEP RWY 34L 34L,34R 2017-03-09 08:35:02
201703082300 TIS ATIS RJAA G M2300 (APCH)ILS RWY34L/ILS Y RWY34R LDG RWY 34L/34R DEP RWY 34L PARL APCHS INPR. DEP FREQ 124.2. OBSERVE GEAR DOWN OPS PROC ON FNL. M 082300Z VRB02KT 25KM FEW030CU 04/M02 Q1007/A2974= Q/TWO NINE SEVEN FOUR STP APCH 082300 RJAA (APCH)ILS RWY34L/ILS Y RWY34R LDG RWY 34L/34R DEP RWY 34L 34L,34R 2017-03-09 08:05:04
201703082230 TIS ATIS RJAA F M2230 (APCH)ILS RWY34L/ILS Y RWY34R LDG RWY 34L/34R DEP RWY 34L PARL APCHS INPR. DEP FREQ 124.2. OBSERVE GEAR DOWN OPS PROC ON FNL. M 082230Z VRB02KT 25KM FEW030CU 02/M03 Q1007/A2974= Q/TWO NINE SEVEN FOUR STP APCH 082230 RJAA (APCH)ILS RWY34L/ILS Y RWY34R LDG RWY 34L/34R DEP RWY 34L 34L,34R 2017-03-09 07:35:02
201703082200 TIS ATIS RJAA E M2200 (APCH)ILS RWY34L/ILS Y RWY34R LDG RWY 34L/34R DEP RWY 34L PARL APCHS INPR. DEP FREQ 124.2. OBSERVE GEAR DOWN OPS PROC ON FNL. M 082200Z VRB02KT 25KM FEW030CU 00/M03 Q1007/A2974= Q/TWO NINE SEVEN FOUR STP APCH 082200 RJAA (APCH)ILS RWY34L/ILS Y RWY34R LDG RWY 34L/34R DEP RWY 34L 34L,34R 2017-03-09 07:05:03
201703082130 TIS ATIS RJAA D M2130 (APCH)ILS RWY34L/ILS Y RWY34R LDG RWY 34L/34R DEP RWY 34L PARL APCHS INPR. DEP FREQ 124.2. OBSERVE GEAR DOWN OPS PROC ON FNL. M 082130Z 23002KT 30KM FEW030CU M02/M04 Q1006/A2973= Q/TWO NINE SEVEN THREE STP APCH 082130 RJAA (APCH)ILS RWY34L/ILS Y RWY34R LDG RWY 34L/34R DEP RWY 34L 34L,34R 2017-03-09 06:35:03
201703082100 TIS ATIS RJAA C M2100 (APCH)ILS RWY34L/ILS Y RWY34R LDG RWY 34L/34R DEP RWY 34L PARL APCHS INPR. DEP FREQ 124.2. OBSERVE GEAR DOWN OPS PROC ON FNL. M 082100Z 31001KT 40KM FEW030CU M02/M04 Q1006/A2972= Q/TWO NINE SEVEN TWO STP APCH 082100 RJAA (APCH)ILS RWY34L/ILS Y RWY34R LDG RWY 34L/34R DEP RWY 34L 34L,34R 2017-03-09 06:05:02
201703082030 TIS ATIS RJAA B M2030 (APCH)ILS RWY34L/ILS Y RWY34R LDG RWY 34L/34R DEP RWY 34L PARL APCHS INPR. DEP FREQ 124.2. OBSERVE GEAR DOWN OPS PROC ON FNL. M 082030Z 34001KT 50KM FEW030CU M02/M04 Q1006/A2972= Q/TWO NINE SEVEN TWO STP APCH 082030 RJAA (APCH)ILS RWY34L/ILS Y RWY34R LDG RWY 34L/34R DEP RWY 34L 34L,34R 2017-03-09 05:35:03
201703082000 TIS ATIS RJAA A M2000 (APCH)NIL USING RWY NIL RWY 16R/34L AND 16L/34R CLSD TIL 2030. M 082000Z 35003KT 260V020 40KM FEW030CU M01/M03 Q1006/A2971= Q/TWO NINE SEVEN ONE STP APCH 082000 RJAA (APCH)NIL USING RWY NIL 34L,34R 2017-03-09 05:05:02
201703081400 TISE ATIS RJAA CLOSE APCH 081400 RJAA 34L,34R 2017-03-08 23:05:03
201703081330 TIS ATIS RJAA A M1330 (APCH)ILS RWY34L/ILS Y RWY34R USING RWY 34L/34R PARL APCHS INPR. DEP FREQ 124.2. REPORT YR ASSIGNED RWY TO TOKYO APP AT INITIAL CTC. RWY 16R/34L WILL BE CLSD FM 1410. OBSERVE GEAR DOWN OPS PROC ON FNL. M 081330Z 00000KT 50KM FEW030CU 01/M01 Q1006/A2971= Q/TWO NINE SEVEN ONE STP APCH 081330 RJAA (APCH)ILS RWY34L/ILS Y RWY34R USING RWY 34L/34R 34L,34R 2017-03-08 22:35:10
201703081300 TIS ATIS RJAA X M1300 (APCH)ILS Y RWY16R/ILS Y RWY16L USING RWY 16R/16L PARL APCHS INPR. DEP FREQ 124.2. REPORT YR ASSIGNED RWY TO TOKYO APP AT INITIAL CTC. RWY 16R/34L WILL BE CLSD FM 1410. M 081300Z 24001KT 50KM FEW030CU 01/M02 Q1006/A2972= Q/TWO NINE SEVEN TWO STP APCH 081300 RJAA (APCH)ILS Y RWY16R/ILS Y RWY16L USING RWY 16R/16L 16L,16R 2017-03-08 22:05:03
201703081230 TIS ATIS RJAA W M1230 (APCH)ILS Y RWY16R/ILS Y RWY16L USING RWY 16R/16L PARL APCHS INPR. DEP FREQ 124.2. REPORT YR ASSIGNED RWY TO TOKYO APP AT INITIAL CTC. M 081230Z 23003KT 50KM FEW030CU 01/M01 Q1006/A2972= Q/TWO NINE SEVEN TWO STP APCH 081230 RJAA (APCH)ILS Y RWY16R/ILS Y RWY16L USING RWY 16R/16L 16L,16R 2017-03-08 21:35:03
201703081200 TIS ATIS RJAA V M1200 (APCH)ILS Y RWY16R/ILS Y RWY16L USING RWY 16R/16L PARL APCHS INPR. DEP FREQ 124.2. REPORT YR ASSIGNED RWY TO TOKYO APP AT INITIAL CTC. M 081200Z 22004KT 50KM FEW030CU 01/M01 Q1006/A2971= Q/TWO NINE SEVEN ONE STP APCH 081200 RJAA (APCH)ILS Y RWY16R/ILS Y RWY16L USING RWY 16R/16L 16L,16R 2017-03-08 21:05:04
201703081130 TIS ATIS RJAA U M1130 (APCH)ILS Y RWY16R/ILS Y RWY16L LDG RWY 16R/16L DEP RWY 16R PARL APCHS INPR. DEP FREQ 124.2. REPORT YR ASSIGNED RWY TO TOKYO APP AT INITIAL CTC. M 081130Z 22003KT 50KM FEW030CU 03/M01 Q1005/A2970= Q/TWO NINE SEVEN ZERO STP APCH 081130 RJAA (APCH)ILS Y RWY16R/ILS Y RWY16L LDG RWY 16R/16L DEP RWY 16R 16L,16R 2017-03-08 20:35:02
201703081100 TIS ATIS RJAA T M1100 (APCH)ILS Y RWY16R/ILS Y RWY16L LDG RWY 16R/16L DEP RWY 16R PARL APCHS INPR. DEP FREQ 124.2. REPORT YR ASSIGNED RWY TO TOKYO APP AT INITIAL CTC. M 081100Z 22003KT 50KM FEW030CU 02/M01 Q1005/A2969= Q/TWO NINE SIX NINE STP APCH 081100 RJAA (APCH)ILS Y RWY16R/ILS Y RWY16L LDG RWY 16R/16L DEP RWY 16R 16L,16R 2017-03-08 20:05:04
201703081030 TIS ATIS RJAA R M1030 (APCH)ILS Y RWY16R/ILS Y RWY16L LDG RWY 16R/16L DEP RWY 16R PARL APCHS INPR. DEP FREQ 124.2. M 081030Z 20002KT 50KM FEW030CU 04/M01 Q1005/A2969= Q/TWO NINE SIX NINE STP APCH 081030 RJAA (APCH)ILS Y RWY16R/ILS Y RWY16L LDG RWY 16R/16L DEP RWY 16R 16L,16R 2017-03-08 19:35:04
201703081000 TIS ATIS RJAA P M1000 (APCH)ILS Y RWY16L LDG RWY 16L DEP RWY 16R/16L SIMUL PARL DEPS INPR. CK INITIAL WPT ON FMS. DEP FREQ 124.2 FM RWY 16R, 119.6 FM RWY 16L. M 081000Z 21004KT 50KM FEW030CU 04/M01 Q1005/A2968= Q/TWO NINE SIX EIGHT STP APCH 081000 RJAA (APCH)ILS Y RWY16L LDG RWY 16L DEP RWY 16R/16L 16L 2017-03-08 19:05:04
201703080930 TIS ATIS RJAA O M0930 (APCH)ILS Y RWY16L LDG RWY 16L DEP RWY 16R/16L SIMUL PARL DEPS INPR. CK INITIAL WPT ON FMS. DEP FREQ 124.2 FM RWY 16R, 119.6 FM RWY 16L. M 080930Z 19004KT 50KM FEW030CU 06/M02 Q1005/A2968 RMK MOD TURB OBS AT 0907 8NM SW NARITA BTN 11000FT AND 14000FT IN CMB BY A388= Q/TWO NINE SIX EIGHT STP APCH 080930 RJAA (APCH)ILS Y RWY16L LDG RWY 16L DEP RWY 16R/16L 16L 2017-03-08 18:35:05
201703080911 TIS ATIS RJAA M S0911 (APCH)ILS Y RWY16L LDG RWY 16L DEP RWY 16R/16L SIMUL PARL DEPS INPR. CK INITIAL WPT ON FMS. DEP FREQ 124.2 FM RWY 16R, 119.6 FM RWY 16L. S 080911Z 18004KT 50KM FEW030CU 06/M02 Q1004/A2967= Q/TWO NINE SIX SEVEN STP APCH 080911 RJAA (APCH)ILS Y RWY16L LDG RWY 16L DEP RWY 16R/16L 16L 2017-03-08 18:15:03
201703080900 TIS ATIS RJAA K M0900 (APCH)ILS Y RWY34R LDG RWY 34R DEP RWY 34L/34R SIMUL PARL DEPS INPR. CK INITIAL WPT ON FMS. DEP FREQ 124.2 FM RWY 34L, 119.6 FM RWY 34R. OBSERVE GEAR DOWN OPS PROC ON FNL. M 080900Z 20004KT 50KM FEW030CU 07/M02 Q1004/A2967= Q/TWO NINE SIX SEVEN STP APCH 080900 RJAA (APCH)ILS Y RWY34R LDG RWY 34R DEP RWY 34L/34R 34R 2017-03-08 18:05:04
201703080830 TIS ATIS RJAA J M0830 (APCH)ILS Y RWY34R LDG RWY 34R DEP RWY 34L/34R SIMUL PARL DEPS INPR. CK INITIAL WPT ON FMS. DEP FREQ 124.2 FM RWY 34L, 119.6 FM RWY 34R. OBSERVE GEAR DOWN OPS PROC ON FNL. M 080830Z VRB02KT 60KM FEW030CU 08/M04 Q1004/A2966 RMK VIRGA NW-N= Q/TWO NINE SIX SIX STP APCH 080830 RJAA (APCH)ILS Y RWY34R LDG RWY 34R DEP RWY 34L/34R 34R 2017-03-08 17:35:03
201703080800 TIS ATIS RJAA G M0800 (APCH)ILS RWY34L/ILS Y RWY34R LDG RWY 34L/34R DEP RWY 34L PARL APCHS INPR. DEP FREQ 124.2. OBSERVE GEAR DOWN OPS PROC ON FNL. M 080800Z 23005KT 40KM FEW030CU 09/M10 Q1004/A2965 RMK VIRGA N-NE= Q/TWO NINE SIX FIVE STP APCH 080800 RJAA (APCH)ILS RWY34L/ILS Y RWY34R LDG RWY 34L/34R DEP RWY 34L 34L,34R 2017-03-08 17:05:04
201703080730 TIS ATIS RJAA F M0730 (APCH)ILS RWY34L/ILS Y RWY34R LDG RWY 34L/34R DEP RWY 34L PARL APCHS INPR. DEP FREQ 124.2. OBSERVE GEAR DOWN OPS PROC ON FNL. M 080730Z 25004KT 190V320 40KM FEW035CU 09/M10 Q1003/A2964= Q/TWO NINE SIX FOUR STP APCH 080730 RJAA (APCH)ILS RWY34L/ILS Y RWY34R LDG RWY 34L/34R DEP RWY 34L 34L,34R 2017-03-08 16:35:02
201703080700 TIS ATIS RJAA D M0700 (APCH)ILS RWY34L/ILS Z RWY34R LDG RWY 34L/34R DEP RWY 34L SIMUL PARL APCHS INPR. EXP LDG RWY34L VIA MELON AND RWY34R VIA BINKS. DEP FREQ 124.2. OBSERVE GEAR DOWN OPS PROC ON FNL. M 080700Z 26004KT 230V300 40KM FEW035CU SCT070AC 09/M10 Q1003/A2963= Q/TWO NINE SIX THREE STP APCH 080700 RJAA (APCH)ILS RWY34L/ILS Z RWY34R LDG RWY 34L/34R DEP RWY 34L 34L,34R 2017-03-08 16:05:03
201703080630 TIS ATIS RJAA B M0630 (APCH)ILS RWY34L/ILS Z RWY34R LDG RWY 34L/34R DEP RWY 34L SIMUL PARL APCHS INPR. EXP LDG RWY34L VIA MELON AND RWY34R VIA BINKS. DEP FREQ 124.2. WS ADVS IN EFFECT. OBSERVE GEAR DOWN OPS PROC ON FNL. M 080630Z 32008KT 240V360 40KM FEW035CU BKN070AC 09/M09 Q1003/A2963 RMK WS MS 10KT OBS AT 0620 ON FNA RWY34R 200FT IN DES BY A320= Q/TWO NINE SIX THREE STP APCH 080630 RJAA (APCH)ILS RWY34L/ILS Z RWY34R LDG RWY 34L/34R DEP RWY 34L 34L,34R 2017-03-08 15:35:03
201703080600 TIS ATIS RJAA Y M0600 (APCH)ILS RWY34L/ILS Z RWY34R LDG RWY 34L/34R DEP RWY 34L SIMUL PARL APCHS INPR. EXP LDG RWY34L VIA MELON AND RWY34R VIA BINKS. DEP FREQ 124.2. OBSERVE GEAR DOWN OPS PROC ON FNL. M 080600Z 27007KT 170V350 40KM FEW035CU BKN080AC 09/M10 Q1003/A2963= Q/TWO NINE SIX THREE STP APCH 080600 RJAA (APCH)ILS RWY34L/ILS Z RWY34R LDG RWY 34L/34R DEP RWY 34L 34L,34R 2017-03-08 15:05:04
201703080530 TIS ATIS RJAA X M0530 (APCH)ILS RWY34L/ILS Z RWY34R LDG RWY 34L/34R DEP RWY 34L SIMUL PARL APCHS INPR. EXP LDG RWY34L VIA MELON AND RWY34R VIA BINKS. DEP FREQ 124.2. OBSERVE GEAR DOWN OPS PROC ON FNL. M 080530Z 32007KT 40KM FEW035CU SCT080AC 10/M10 Q1003/A2962= Q/TWO NINE SIX TWO STP APCH 080530 RJAA (APCH)ILS RWY34L/ILS Z RWY34R LDG RWY 34L/34R DEP RWY 34L 34L,34R 2017-03-08 14:35:02
201703080500 TIS ATIS RJAA V M0500 (APCH)ILS RWY34L/ILS Y RWY34R LDG RWY 34L/34R DEP RWY 34L PARL APCHS INPR. DEP FREQ 124.2. OBSERVE GEAR DOWN OPS PROC ON FNL. M 080500Z 29007KT 240V330 40KM FEW035CU SCT070AC 09/M10 Q1003/A2962= Q/TWO NINE SIX TWO STP APCH 080500 RJAA (APCH)ILS RWY34L/ILS Y RWY34R LDG RWY 34L/34R DEP RWY 34L 34L,34R 2017-03-08 14:05:04
201703080430 TIS ATIS RJAA T M0430 (APCH)ILS RWY34L/ILS Y RWY34R LDG RWY 34L/34R DEP RWY 34L PARL APCHS INPR. DEP FREQ 124.2. OBSERVE GEAR DOWN OPS PROC ON FNL. M 080430Z 30005KT 230V010 50KM FEW035CU 10/M10 Q1003/A2962= Q/TWO NINE SIX TWO STP APCH 080430 RJAA (APCH)ILS RWY34L/ILS Y RWY34R LDG RWY 34L/34R DEP RWY 34L 34L,34R 2017-03-08 13:35:03
201703080400 TIS ATIS RJAA S M0400 (APCH)ILS RWY34L/ILS Y RWY34R LDG RWY 34L/34R DEP RWY 34L PARL APCHS INPR. DEP FREQ 124.2. OBSERVE GEAR DOWN OPS PROC ON FNL. M 080400Z 31008KT 270V330 50KM FEW035CU 10/M09 Q1003/A2963= Q/TWO NINE SIX THREE STP APCH 080400 RJAA (APCH)ILS RWY34L/ILS Y RWY34R LDG RWY 34L/34R DEP RWY 34L 34L,34R 2017-03-08 13:05:04
201703080346 TIS ATIS RJAA R S0346 (APCH)ILS RWY34L/ILS Y RWY34R LDG RWY 34L/34R DEP RWY 34L PARL APCHS INPR. DEP FREQ 124.2. OBSERVE GEAR DOWN OPS PROC ON FNL. S 080346Z 33010KT 40KM FEW035CU 10/M10 Q1003/A2963= Q/TWO NINE SIX THREE STP APCH 080346 RJAA (APCH)ILS RWY34L/ILS Y RWY34R LDG RWY 34L/34R DEP RWY 34L 34L,34R 2017-03-08 12:50:04
201703080330 TIS ATIS RJAA Q M0330 (APCH)ILS RWY34L/ILS Y RWY34R LDG RWY 34L/34R DEP RWY 34L PARL APCHS INPR. DEP FREQ 124.2. OBSERVE GEAR DOWN OPS PROC ON FNL. M 080330Z VRB04KT 40KM FEW035CU 10/M07 Q1003/A2964= Q/TWO NINE SIX FOUR STP APCH 080330 RJAA (APCH)ILS RWY34L/ILS Y RWY34R LDG RWY 34L/34R DEP RWY 34L 34L,34R 2017-03-08 12:35:04
201703080300 TIS ATIS RJAA P M0300 (APCH)ILS Y RWY34R LDG RWY 34R DEP RWY 34L DEP FREQ 124.2. OBSERVE GEAR DOWN OPS PROC ON FNL. M 080300Z 28005KT 40KM FEW030CU 10/M05 Q1004/A2965= Q/TWO NINE SIX FIVE STP APCH 080300 RJAA (APCH)ILS Y RWY34R LDG RWY 34R DEP RWY 34L 34R 2017-03-08 12:05:03
201703080230 TIS ATIS RJAA O M0230 (APCH)ILS Y RWY34R LDG RWY 34R DEP RWY 34L DEP FREQ 124.2. OBSERVE GEAR DOWN OPS PROC ON FNL. M 080230Z 31008KT 270V350 40KM FEW030CU 09/M04 Q1004/A2966= Q/TWO NINE SIX SIX STP APCH 080230 RJAA (APCH)ILS Y RWY34R LDG RWY 34R DEP RWY 34L 34R 2017-03-08 11:35:03
201703080200 TIS ATIS RJAA N M0200 (APCH)ILS Y RWY34R LDG RWY 34R DEP RWY 34L DEP FREQ 124.2. OBSERVE GEAR DOWN OPS PROC ON FNL. M 080200Z 32008KT 40KM FEW030CU 08/M04 Q1005/A2968= Q/TWO NINE SIX EIGHT STP APCH 080200 RJAA (APCH)ILS Y RWY34R LDG RWY 34R DEP RWY 34L 34R 2017-03-08 11:05:03
201703080130 TIS ATIS RJAA M M0130 (APCH)ILS Y RWY34R LDG RWY 34R DEP RWY 34L DEP FREQ 124.2. OBSERVE GEAR DOWN OPS PROC ON FNL. M 080130Z 30007KT 240V340 30KM FEW030CU 08/M03 Q1005/A2969= Q/TWO NINE SIX NINE STP APCH 080130 RJAA (APCH)ILS Y RWY34R LDG RWY 34R DEP RWY 34L 34R 2017-03-08 10:35:03